Flight Track Log - Related Links

Times and Time Zones

All times are in EDT time to prevent confusion due to time zone crossing. See the SWA709 flight status page for this flight to view local times or setup timezone preferences in your user account.

Time Position Orientation Groundspeed Altitude Reporting Facility
EDT Latitude Longitude Course Direction KTS MPH feet Rate Location/Type
Tue 11:03:30 AM 36.0767 -115.0722 88° East 196 226 4,900  Level Los Angeles Center
Tue 11:04:06 AM 36.0781 -115.0203 88° East 222 255 6,200 2,900 Climbing Los Angeles Center
Tue 11:04:30 AM 36.0733 -114.9775 98° East 287 330 7,800 3,443 Climbing Los Angeles Center
Tue 11:05:07 AM 36.0425 -114.9342 131° Southeast 289 333 9,700 3,164 Climbing Los Angeles Center
Tue 11:05:25 AM 36.0139 -114.9228 162° South 322 371 10,700 3,581 Climbing Los Angeles Center
Tue 11:06:09 AM 35.9586 -114.9289 185° South 309 356 13,400 3,403 Climbing Los Angeles Center
Tue 11:06:32 AM 35.9428 -114.9731 246° West 298 343 14,500 1,645 Climbing Los Angeles Center
Tue 11:07:11 AM 35.9394 -115.0308 266° West 312 359 15,100 2,020 Climbing Los Angeles Center
Tue 11:08:00 AM 36.2333 -115.8560 285° West  Level Estimated
Tue 11:08:13 AM 35.9350 -115.1519 267° West 342 394 17,900  Level Los Angeles Center
Tue 11:09:15 AM 35.9286 -115.2753 266° West 355 409 21,200 2,903 Climbing Los Angeles Center
Tue 11:10:17 AM 35.9236 -115.3994 267° West 359 413 23,900 2,516 Climbing Los Angeles Center
Tue 11:11:19 AM 35.9169 -115.5564 267° West 372 428 26,400 2,195 Climbing Los Angeles Center
Tue 11:12:20 AM 35.9306 -115.6883 277° West 386 444 28,400 2,146 Climbing Los Angeles Center
Tue 11:13:22 AM 35.9964 -115.7981 307° West 393 452 30,800 2,226 Climbing Los Angeles Center
Tue 11:14:24 AM 36.0650 -115.9103 307° West 388 447 33,000 1,968 Climbing Los Angeles Center
Tue 11:15:27 AM 36.1289 -116.0161 307° West 384 442 34,900 1,728 Climbing Los Angeles Center
Tue 11:16:29 AM 36.1917 -116.1203 307° West 379 436 36,600 1,500 Climbing Los Angeles Center
Tue 11:17:31 AM 36.2589 -116.2308 307° West 370 426 38,000 677 Climbing Los Angeles Center
Tue 11:18:33 AM 36.3208 -116.3336 307° West 372 428 38,000  Level Los Angeles Center
Tue 11:19:37 AM 36.3817 -116.4375 306° West 373 429 38,000  Level Los Angeles Center
Tue 11:20:37 AM 36.4439 -116.5406 307° West 373 429 38,000  Level Los Angeles Center
Tue 11:21:39 AM 36.5056 -116.6456 306° West 376 433 38,000  Level Los Angeles Center
Tue 11:22:41 AM 36.5711 -116.7672 304° West 374 430 38,000  Level Los Angeles Center
Tue 11:23:43 AM 36.5967 -116.9019 283° West 375 432 38,000  Level Los Angeles Center
Tue 11:24:45 AM 36.6222 -117.0281 284° West 377 434 38,000  Level Los Angeles Center
Tue 11:25:47 AM 36.6464 -117.1553 283° West 379 436 38,000  Level Los Angeles Center
Tue 11:26:49 AM 36.6711 -117.2803 284° West 375 432 38,000  Level Los Angeles Center
Tue 11:27:51 AM 36.6950 -117.4061 283° West 375 432 38,000  Level Los Angeles Center
Tue 11:28:53 AM 36.7233 -117.5600 283° West 380 437 38,000  Level Los Angeles Center
Tue 11:29:55 AM 36.7481 -117.6883 284° West 382 440 38,000  Level Los Angeles Center
Tue 11:30:58 AM 36.7717 -117.8167 283° West 383 441 38,000  Level Los Angeles Center
Tue 11:32:00 AM 36.7961 -117.9464 283° West 387 445 38,000  Level Los Angeles Center
Tue 11:33:02 AM 36.8200 -118.0792 283° West 389 448 38,000  Level Los Angeles Center
Tue 11:34:04 AM 36.8492 -118.2417 283° West 396 456 38,000 -48 Level Los Angeles Center
Tue 11:35:06 AM 36.8756 -118.3778 284° West 401 461 37,900 -486 Descending Los Angeles Center
Tue 11:35:55 AM 36.8911 -118.4806 281° West 397 457 37,100 -982 Descending Oakland Center
Tue 11:36:56 AM 36.9150 -118.6111 283° West 399 459 36,100 -934 Descending Oakland Center
Tue 11:37:57 AM 36.9392 -118.7478 283° West 402 463 35,200 -1,024 Descending Oakland Center
Tue 11:38:59 AM 36.9650 -118.8875 283° West 416 479 34,000 -1,610 Descending Oakland Center
Tue 11:40:00 AM 36.9881 -119.0231 282° West 394 453 31,900 -2,016 Descending Oakland Center
Tue 11:41:01 AM 37.0117 -119.1544 283° West 387 445 29,900 -2,164 Descending Oakland Center
Tue 11:42:02 AM 37.0381 -119.3097 282° West 384 442 27,500 -2,146 Descending Oakland Center
Tue 11:43:04 AM 37.0586 -119.4322 282° West 364 419 25,500 -1,707 Descending Oakland Center
Tue 11:44:05 AM 37.0783 -119.5522 282° West 353 406 24,000 -1,230 Descending Oakland Center
Tue 11:45:06 AM 37.0989 -119.6728 282° West 355 409 23,000 -976 Descending Oakland Center
Tue 11:46:08 AM 37.1186 -119.7939 282° West 356 410 22,000 -927 Descending Oakland Center
Tue 11:47:09 AM 37.1372 -119.9125 281° West 354 407 21,100 -934 Descending Oakland Center
Tue 11:48:10 AM 37.1575 -120.0369 282° West 364 419 20,100 -976 Descending Oakland Center
Tue 11:49:12 AM 37.1772 -120.1575 282° West 357 411 19,100 -1,073 Descending Oakland Center
Tue 11:50:13 AM 37.1625 -120.3117 263° West 371 427 17,900 -1,049 Descending Oakland Center
Tue 11:50:55 AM 37.1500 -120.3833 258° West 369 425 17,300 -941 Descending Northern Cal TRACON
Tue 11:51:55 AM 37.1333 -120.5000 260° West 370 426 16,300 -1,037 Descending Northern Cal TRACON
Tue 11:52:16 AM 37.1244 -120.5625 260° West 363 418 15,900 -1,024 Descending Oakland Center
Tue 11:53:17 AM 37.1050 -120.6856 259° West 360 414 14,900 -976 Descending Oakland Center
Tue 11:54:19 AM 37.0867 -120.8067 259° West 359 413 13,900 -976 Descending Oakland Center
Tue 11:55:20 AM 37.0700 -120.9208 260° West 336 387 12,900 -976 Descending Oakland Center
Tue 11:56:22 AM 37.0517 -121.0403 259° West 348 400 11,900 -1,024 Descending Oakland Center
Tue 11:57:23 AM 37.0289 -121.1631 257° West 346 398 10,800 -836 Descending Oakland Center
Tue 11:58:24 AM 36.9961 -121.2639 248° West 316 364 10,200 -439 Descending Oakland Center
Tue 11:59:26 AM 36.9642 -121.3625 248° West 308 354 9,900 -585 Descending Oakland Center
Tue 12:00:27 PM 36.9344 -121.4558 248° West 294 338 9,000 -689 Descending Oakland Center
Tue 12:01:28 PM 36.9597 -121.5389 291° West 290 334 8,500 -537 Descending Oakland Center
Tue 12:02:30 PM 37.0225 -121.5914 326° Northwest 273 314 7,900 -878 Descending Oakland Center
Tue 12:03:31 PM 37.0911 -121.6481 327° Northwest 256 295 6,700 -1,366 Descending Oakland Center
Tue 12:04:33 PM 37.1519 -121.7067 322° Northwest 262 302 5,100 -1,268 Descending Oakland Center
Tue 12:05:34 PM 37.2036 -121.7617 320° Northwest 256 295 4,100 -1,131 Descending Oakland Center
Tue 12:06:35 PM 37.2506 -121.8094 321° Northwest 235 270 2,800 -1,171 Descending Oakland Center
Tue 12:07:37 PM 37.2894 -121.8489 321° Northwest 204 235 1,700 -927 Descending Oakland Center
Tue 12:08:38 PM 37.3197 -121.8814 320° Northwest 171 197 900 -732 Descending Oakland Center
Tue 12:09:40 PM 37.3475 -121.9103 320° Northwest 146 168 200 -677 Descending Oakland Center
Tue 12:11:00 PM 37.3500 -121.9167 North  Level FlightAware Approximate
Tue 12:18:00 PM 37.3627 -121.9291 North  Level Estimated

Login

Don't have an account? Register now (free) for customized features, flight alerts, and more!